sensor_id;sensor_type;location;lat;lon;timestamp;P1;durP1;ratioP1;P2;durP2;ratioP2
49378;SDS011;35254;47.990;-1.608;2023-11-19T00:00:45;2.00;;;1.10;;
49378;SDS011;35254;47.990;-1.608;2023-11-19T00:03:11;1.77;;;1.05;;
49378;SDS011;35254;47.990;-1.608;2023-11-19T00:05:38;2.30;;;0.90;;
49378;SDS011;35254;47.990;-1.608;2023-11-19T00:08:04;3.92;;;1.67;;
49378;SDS011;35254;47.990;-1.608;2023-11-19T00:10:30;4.10;;;1.23;;
49378;SDS011;35254;47.990;-1.608;2023-11-19T00:12:56;2.03;;;0.77;;
49378;SDS011;35254;47.990;-1.608;2023-11-19T00:15:22;3.50;;;1.10;;
49378;SDS011;35254;47.990;-1.608;2023-11-19T00:17:49;1.40;;;1.08;;
49378;SDS011;35254;47.990;-1.608;2023-11-19T00:20:15;2.70;;;0.80;;
49378;SDS011;35254;47.990;-1.608;2023-11-19T00:22:42;5.25;;;0.85;;
49378;SDS011;35254;47.990;-1.608;2023-11-19T00:25:09;2.78;;;1.20;;
49378;SDS011;35254;47.990;-1.608;2023-11-19T00:27:38;2.75;;;0.90;;
49378;SDS011;35254;47.990;-1.608;2023-11-19T00:30:04;3.45;;;1.42;;
49378;SDS011;35254;47.990;-1.608;2023-11-19T00:32:34;1.73;;;1.27;;
49378;SDS011;35254;47.990;-1.608;2023-11-19T00:35:01;3.47;;;1.23;;
49378;SDS011;35254;47.990;-1.608;2023-11-19T00:37:27;3.53;;;1.42;;
49378;SDS011;35254;47.990;-1.608;2023-11-19T00:39:53;3.80;;;1.10;;
49378;SDS011;35254;47.990;-1.608;2023-11-19T00:42:20;1.42;;;1.13;;
49378;SDS011;35254;47.990;-1.608;2023-11-19T00:44:46;5.85;;;1.20;;
49378;SDS011;35254;47.990;-1.608;2023-11-19T00:47:12;4.60;;;1.58;;
49378;SDS011;35254;47.990;-1.608;2023-11-19T00:49:37;2.15;;;0.85;;
49378;SDS011;35254;47.990;-1.608;2023-11-19T00:52:03;2.58;;;0.88;;
49378;SDS011;35254;47.990;-1.608;2023-11-19T00:54:29;3.72;;;1.15;;
49378;SDS011;35254;47.990;-1.608;2023-11-19T00:56:55;1.75;;;0.80;;
49378;SDS011;35254;47.990;-1.608;2023-11-19T00:59:21;1.95;;;0.70;;
49378;SDS011;35254;47.990;-1.608;2023-11-19T01:01:47;3.17;;;1.23;;
49378;SDS011;35254;47.990;-1.608;2023-11-19T01:04:13;2.55;;;1.08;;
49378;SDS011;35254;47.990;-1.608;2023-11-19T01:06:39;7.38;;;1.02;;
49378;SDS011;35254;47.990;-1.608;2023-11-19T01:09:07;4.32;;;0.90;;
49378;SDS011;35254;47.990;-1.608;2023-11-19T01:11:34;7.70;;;1.33;;
49378;SDS011;35254;47.990;-1.608;2023-11-19T01:13:59;3.38;;;1.40;;
49378;SDS011;35254;47.990;-1.608;2023-11-19T01:16:25;3.22;;;0.93;;
49378;SDS011;35254;47.990;-1.608;2023-11-19T01:18:51;3.13;;;1.05;;
49378;SDS011;35254;47.990;-1.608;2023-11-19T01:21:17;1.63;;;0.93;;
49378;SDS011;35254;47.990;-1.608;2023-11-19T01:23:43;6.47;;;1.33;;
49378;SDS011;35254;47.990;-1.608;2023-11-19T01:26:09;3.28;;;0.75;;
49378;SDS011;35254;47.990;-1.608;2023-11-19T01:28:35;2.40;;;0.77;;
49378;SDS011;35254;47.990;-1.608;2023-11-19T01:31:01;4.22;;;0.82;;
49378;SDS011;35254;47.990;-1.608;2023-11-19T01:33:28;4.72;;;1.10;;
49378;SDS011;35254;47.990;-1.608;2023-11-19T01:35:54;2.45;;;1.13;;
49378;SDS011;35254;47.990;-1.608;2023-11-19T01:38:21;4.13;;;1.30;;
49378;SDS011;35254;47.990;-1.608;2023-11-19T01:40:46;2.88;;;0.90;;
49378;SDS011;35254;47.990;-1.608;2023-11-19T01:43:12;3.50;;;1.25;;
49378;SDS011;35254;47.990;-1.608;2023-11-19T01:45:55;3.50;;;1.00;;
49378;SDS011;35254;47.990;-1.608;2023-11-19T01:48:21;2.53;;;0.85;;
49378;SDS011;35254;47.990;-1.608;2023-11-19T01:50:47;2.83;;;0.90;;
49378;SDS011;35254;47.990;-1.608;2023-11-19T01:53:13;7.65;;;2.45;;
49378;SDS011;35254;47.990;-1.608;2023-11-19T01:55:39;2.55;;;1.10;;
49378;SDS011;35254;47.990;-1.608;2023-11-19T01:58:05;3.95;;;1.17;;
49378;SDS011;35254;47.990;-1.608;2023-11-19T02:00:32;6.05;;;1.17;;
49378;SDS011;35254;47.990;-1.608;2023-11-19T02:02:58;5.03;;;1.60;;
49378;SDS011;35254;47.990;-1.608;2023-11-19T02:05:24;1.80;;;0.93;;
49378;SDS011;35254;47.990;-1.608;2023-11-19T02:07:50;1.73;;;1.50;;
49378;SDS011;35254;47.990;-1.608;2023-11-19T02:10:16;3.33;;;0.90;;
49378;SDS011;35254;47.990;-1.608;2023-11-19T02:12:44;3.55;;;0.98;;
49378;SDS011;35254;47.990;-1.608;2023-11-19T02:15:10;3.30;;;1.02;;
49378;SDS011;35254;47.990;-1.608;2023-11-19T02:17:36;8.13;;;1.00;;
49378;SDS011;35254;47.990;-1.608;2023-11-19T02:20:05;3.05;;;0.80;;
49378;SDS011;35254;47.990;-1.608;2023-11-19T02:22:36;2.85;;;1.10;;
49378;SDS011;35254;47.990;-1.608;2023-11-19T02:25:06;2.50;;;1.73;;
49378;SDS011;35254;47.990;-1.608;2023-11-19T02:27:53;3.55;;;0.90;;
49378;SDS011;35254;47.990;-1.608;2023-11-19T02:30:22;7.38;;;2.05;;
49378;SDS011;35254;47.990;-1.608;2023-11-19T02:32:54;4.30;;;1.15;;
49378;SDS011;35254;47.990;-1.608;2023-11-19T02:35:22;4.82;;;1.83;;
49378;SDS011;35254;47.990;-1.608;2023-11-19T02:37:48;5.45;;;1.95;;
49378;SDS011;35254;47.990;-1.608;2023-11-19T02:40:14;5.43;;;1.13;;
49378;SDS011;35254;47.990;-1.608;2023-11-19T02:42:40;6.88;;;1.33;;
49378;SDS011;35254;47.990;-1.608;2023-11-19T02:45:06;3.15;;;1.25;;
49378;SDS011;35254;47.990;-1.608;2023-11-19T02:47:33;4.18;;;1.27;;
49378;SDS011;35254;47.990;-1.608;2023-11-19T02:49:59;4.38;;;1.42;;
49378;SDS011;35254;47.990;-1.608;2023-11-19T02:52:25;4.40;;;1.40;;
49378;SDS011;35254;47.990;-1.608;2023-11-19T02:54:50;4.72;;;0.93;;
49378;SDS011;35254;47.990;-1.608;2023-11-19T02:57:17;3.67;;;1.42;;
49378;SDS011;35254;47.990;-1.608;2023-11-19T02:59:46;4.03;;;1.30;;
49378;SDS011;35254;47.990;-1.608;2023-11-19T03:02:11;5.85;;;1.30;;
49378;SDS011;35254;47.990;-1.608;2023-11-19T03:04:37;6.28;;;1.60;;
49378;SDS011;35254;47.990;-1.608;2023-11-19T03:09:33;4.53;;;1.20;;
49378;SDS011;35254;47.990;-1.608;2023-11-19T03:12:00;4.72;;;1.30;;
49378;SDS011;35254;47.990;-1.608;2023-11-19T03:14:26;7.28;;;2.35;;
49378;SDS011;35254;47.990;-1.608;2023-11-19T03:16:52;5.90;;;1.70;;
49378;SDS011;35254;47.990;-1.608;2023-11-19T03:19:18;4.45;;;1.20;;
49378;SDS011;35254;47.990;-1.608;2023-11-19T03:21:44;9.05;;;1.63;;
49378;SDS011;35254;47.990;-1.608;2023-11-19T03:24:10;5.85;;;1.67;;
49378;SDS011;35254;47.990;-1.608;2023-11-19T03:26:37;6.30;;;1.50;;
49378;SDS011;35254;47.990;-1.608;2023-11-19T03:29:03;7.90;;;2.20;;
49378;SDS011;35254;47.990;-1.608;2023-11-19T03:31:29;7.75;;;1.70;;
49378;SDS011;35254;47.990;-1.608;2023-11-19T03:33:54;7.30;;;1.60;;
49378;SDS011;35254;47.990;-1.608;2023-11-19T03:36:20;7.93;;;1.75;;
49378;SDS011;35254;47.990;-1.608;2023-11-19T03:38:45;9.52;;;1.70;;
49378;SDS011;35254;47.990;-1.608;2023-11-19T03:41:14;8.18;;;1.65;;
49378;SDS011;35254;47.990;-1.608;2023-11-19T03:43:42;7.32;;;1.40;;
49378;SDS011;35254;47.990;-1.608;2023-11-19T03:46:19;8.40;;;1.58;;
49378;SDS011;35254;47.990;-1.608;2023-11-19T03:48:46;8.18;;;2.25;;
49378;SDS011;35254;47.990;-1.608;2023-11-19T03:51:15;12.83;;;1.90;;
49378;SDS011;35254;47.990;-1.608;2023-11-19T03:53:45;7.25;;;1.73;;
49378;SDS011;35254;47.990;-1.608;2023-11-19T03:56:11;8.27;;;2.13;;
49378;SDS011;35254;47.990;-1.608;2023-11-19T03:58:37;9.57;;;1.73;;
49378;SDS011;35254;47.990;-1.608;2023-11-19T04:01:10;13.52;;;1.77;;
49378;SDS011;35254;47.990;-1.608;2023-11-19T04:03:38;5.22;;;1.58;;
49378;SDS011;35254;47.990;-1.608;2023-11-19T04:06:04;6.95;;;1.90;;
49378;SDS011;35254;47.990;-1.608;2023-11-19T04:08:30;8.20;;;1.38;;
49378;SDS011;35254;47.990;-1.608;2023-11-19T04:10:55;11.55;;;2.17;;
49378;SDS011;35254;47.990;-1.608;2023-11-19T04:13:21;6.75;;;1.80;;
49378;SDS011;35254;47.990;-1.608;2023-11-19T04:15:48;6.88;;;1.92;;
49378;SDS011;35254;47.990;-1.608;2023-11-19T04:18:14;8.20;;;1.83;;
49378;SDS011;35254;47.990;-1.608;2023-11-19T04:20:40;5.07;;;1.60;;
49378;SDS011;35254;47.990;-1.608;2023-11-19T04:23:07;9.18;;;2.20;;
49378;SDS011;35254;47.990;-1.608;2023-11-19T04:25:33;7.75;;;1.50;;
49378;SDS011;35254;47.990;-1.608;2023-11-19T04:27:59;9.65;;;2.13;;
49378;SDS011;35254;47.990;-1.608;2023-11-19T04:30:25;8.95;;;1.95;;
49378;SDS011;35254;47.990;-1.608;2023-11-19T04:32:51;12.88;;;2.13;;
49378;SDS011;35254;47.990;-1.608;2023-11-19T04:35:16;7.05;;;1.80;;
49378;SDS011;35254;47.990;-1.608;2023-11-19T04:37:44;10.18;;;1.90;;
49378;SDS011;35254;47.990;-1.608;2023-11-19T04:40:09;8.95;;;1.95;;
49378;SDS011;35254;47.990;-1.608;2023-11-19T04:42:37;9.93;;;2.17;;
49378;SDS011;35254;47.990;-1.608;2023-11-19T04:45:05;13.23;;;2.35;;
49378;SDS011;35254;47.990;-1.608;2023-11-19T04:47:32;9.15;;;2.75;;
49378;SDS011;35254;47.990;-1.608;2023-11-19T04:49:59;11.73;;;2.33;;
49378;SDS011;35254;47.990;-1.608;2023-11-19T04:52:25;12.00;;;3.58;;
49378;SDS011;35254;47.990;-1.608;2023-11-19T04:54:50;8.32;;;2.00;;
49378;SDS011;35254;47.990;-1.608;2023-11-19T04:57:16;12.43;;;2.58;;
49378;SDS011;35254;47.990;-1.608;2023-11-19T04:59:42;5.95;;;1.80;;
49378;SDS011;35254;47.990;-1.608;2023-11-19T05:02:08;9.23;;;1.80;;
49378;SDS011;35254;47.990;-1.608;2023-11-19T05:04:34;9.70;;;2.15;;
49378;SDS011;35254;47.990;-1.608;2023-11-19T05:07:00;11.05;;;2.13;;
49378;SDS011;35254;47.990;-1.608;2023-11-19T05:09:26;12.98;;;2.17;;
49378;SDS011;35254;47.990;-1.608;2023-11-19T05:11:52;7.47;;;1.70;;
49378;SDS011;35254;47.990;-1.608;2023-11-19T05:14:17;4.72;;;1.73;;
49378;SDS011;35254;47.990;-1.608;2023-11-19T05:16:48;6.05;;;1.73;;
49378;SDS011;35254;47.990;-1.608;2023-11-19T05:19:13;6.05;;;1.98;;
49378;SDS011;35254;47.990;-1.608;2023-11-19T05:21:41;9.85;;;2.88;;
49378;SDS011;35254;47.990;-1.608;2023-11-19T05:24:10;7.07;;;1.80;;
49378;SDS011;35254;47.990;-1.608;2023-11-19T05:26:36;6.10;;;2.33;;
49378;SDS011;35254;47.990;-1.608;2023-11-19T05:29:02;9.77;;;2.33;;
49378;SDS011;35254;47.990;-1.608;2023-11-19T05:31:29;9.02;;;2.63;;
49378;SDS011;35254;47.990;-1.608;2023-11-19T05:33:55;7.38;;;2.42;;
49378;SDS011;35254;47.990;-1.608;2023-11-19T05:36:21;11.73;;;2.92;;
49378;SDS011;35254;47.990;-1.608;2023-11-19T05:38:46;4.70;;;1.33;;
49378;SDS011;35254;47.990;-1.608;2023-11-19T05:41:12;4.38;;;1.63;;
49378;SDS011;35254;47.990;-1.608;2023-11-19T05:43:37;8.85;;;2.38;;
49378;SDS011;35254;47.990;-1.608;2023-11-19T05:46:05;8.55;;;1.88;;
49378;SDS011;35254;47.990;-1.608;2023-11-19T05:48:31;7.32;;;1.73;;
49378;SDS011;35254;47.990;-1.608;2023-11-19T05:50:58;9.55;;;1.90;;
49378;SDS011;35254;47.990;-1.608;2023-11-19T05:53:23;12.65;;;2.20;;
49378;SDS011;35254;47.990;-1.608;2023-11-19T05:55:49;9.13;;;1.90;;
49378;SDS011;35254;47.990;-1.608;2023-11-19T05:58:23;9.50;;;2.30;;
49378;SDS011;35254;47.990;-1.608;2023-11-19T06:00:51;9.30;;;1.63;;
49378;SDS011;35254;47.990;-1.608;2023-11-19T06:03:17;9.35;;;2.00;;
49378;SDS011;35254;47.990;-1.608;2023-11-19T06:05:45;8.65;;;1.95;;
49378;SDS011;35254;47.990;-1.608;2023-11-19T06:08:11;8.13;;;2.10;;
49378;SDS011;35254;47.990;-1.608;2023-11-19T06:10:41;12.35;;;3.53;;
49378;SDS011;35254;47.990;-1.608;2023-11-19T06:13:07;10.02;;;2.85;;
49378;SDS011;35254;47.990;-1.608;2023-11-19T06:15:35;8.68;;;2.15;;
49378;SDS011;35254;47.990;-1.608;2023-11-19T06:18:01;7.88;;;1.50;;
49378;SDS011;35254;47.990;-1.608;2023-11-19T06:20:32;7.68;;;1.75;;
49378;SDS011;35254;47.990;-1.608;2023-11-19T06:22:58;8.35;;;1.92;;
49378;SDS011;35254;47.990;-1.608;2023-11-19T06:25:24;7.43;;;1.85;;
49378;SDS011;35254;47.990;-1.608;2023-11-19T06:27:50;8.38;;;2.60;;
49378;SDS011;35254;47.990;-1.608;2023-11-19T06:30:17;8.05;;;2.00;;
49378;SDS011;35254;47.990;-1.608;2023-11-19T06:32:43;9.68;;;2.10;;
49378;SDS011;35254;47.990;-1.608;2023-11-19T06:35:08;8.15;;;1.73;;
49378;SDS011;35254;47.990;-1.608;2023-11-19T06:37:38;6.63;;;2.53;;
49378;SDS011;35254;47.990;-1.608;2023-11-19T06:40:05;7.40;;;2.17;;
49378;SDS011;35254;47.990;-1.608;2023-11-19T06:42:31;12.75;;;2.95;;
49378;SDS011;35254;47.990;-1.608;2023-11-19T06:44:57;8.40;;;2.65;;
49378;SDS011;35254;47.990;-1.608;2023-11-19T06:47:27;7.68;;;1.65;;
49378;SDS011;35254;47.990;-1.608;2023-11-19T06:49:53;10.00;;;2.75;;
49378;SDS011;35254;47.990;-1.608;2023-11-19T06:52:19;10.95;;;2.30;;
49378;SDS011;35254;47.990;-1.608;2023-11-19T06:54:45;10.30;;;2.10;;
49378;SDS011;35254;47.990;-1.608;2023-11-19T06:57:11;11.45;;;2.75;;
49378;SDS011;35254;47.990;-1.608;2023-11-19T06:59:37;10.45;;;1.95;;
49378;SDS011;35254;47.990;-1.608;2023-11-19T07:02:03;11.13;;;3.65;;
49378;SDS011;35254;47.990;-1.608;2023-11-19T07:04:29;16.13;;;2.50;;
49378;SDS011;35254;47.990;-1.608;2023-11-19T07:06:55;6.55;;;1.50;;
49378;SDS011;35254;47.990;-1.608;2023-11-19T07:09:21;10.98;;;2.35;;
49378;SDS011;35254;47.990;-1.608;2023-11-19T07:11:48;7.53;;;2.10;;
49378;SDS011;35254;47.990;-1.608;2023-11-19T07:14:15;7.25;;;2.17;;
49378;SDS011;35254;47.990;-1.608;2023-11-19T07:16:41;12.35;;;2.28;;
49378;SDS011;35254;47.990;-1.608;2023-11-19T07:19:07;6.95;;;1.83;;
49378;SDS011;35254;47.990;-1.608;2023-11-19T07:21:33;9.20;;;2.35;;
49378;SDS011;35254;47.990;-1.608;2023-11-19T07:23:59;9.45;;;2.10;;
49378;SDS011;35254;47.990;-1.608;2023-11-19T07:26:25;7.55;;;2.45;;
49378;SDS011;35254;47.990;-1.608;2023-11-19T07:28:52;9.18;;;2.17;;
49378;SDS011;35254;47.990;-1.608;2023-11-19T07:31:17;8.02;;;1.90;;
49378;SDS011;35254;47.990;-1.608;2023-11-19T07:33:46;9.68;;;2.20;;
49378;SDS011;35254;47.990;-1.608;2023-11-19T07:36:12;8.32;;;3.10;;
49378;SDS011;35254;47.990;-1.608;2023-11-19T07:38:38;7.32;;;1.80;;
49378;SDS011;35254;47.990;-1.608;2023-11-19T07:41:07;11.27;;;2.47;;
49378;SDS011;35254;47.990;-1.608;2023-11-19T07:43:37;10.50;;;2.50;;
49378;SDS011;35254;47.990;-1.608;2023-11-19T07:46:04;10.45;;;2.40;;
49378;SDS011;35254;47.990;-1.608;2023-11-19T07:48:32;7.97;;;2.65;;
49378;SDS011;35254;47.990;-1.608;2023-11-19T07:50:59;10.13;;;1.85;;
49378;SDS011;35254;47.990;-1.608;2023-11-19T07:53:26;10.88;;;1.50;;
49378;SDS011;35254;47.990;-1.608;2023-11-19T07:55:51;7.95;;;1.95;;
49378;SDS011;35254;47.990;-1.608;2023-11-19T07:58:17;10.00;;;1.85;;
49378;SDS011;35254;47.990;-1.608;2023-11-19T08:00:43;11.13;;;2.67;;
49378;SDS011;35254;47.990;-1.608;2023-11-19T08:03:08;7.50;;;1.98;;
49378;SDS011;35254;47.990;-1.608;2023-11-19T08:05:34;13.13;;;2.45;;
49378;SDS011;35254;47.990;-1.608;2023-11-19T08:07:59;7.80;;;2.03;;
49378;SDS011;35254;47.990;-1.608;2023-11-19T08:10:25;13.23;;;3.03;;
49378;SDS011;35254;47.990;-1.608;2023-11-19T08:12:51;11.35;;;2.75;;
49378;SDS011;35254;47.990;-1.608;2023-11-19T08:15:17;5.78;;;1.92;;
49378;SDS011;35254;47.990;-1.608;2023-11-19T08:17:43;9.55;;;2.65;;
49378;SDS011;35254;47.990;-1.608;2023-11-19T08:20:09;11.20;;;2.15;;
49378;SDS011;35254;47.990;-1.608;2023-11-19T08:22:38;12.38;;;2.17;;
49378;SDS011;35254;47.990;-1.608;2023-11-19T08:25:04;8.60;;;2.05;;
49378;SDS011;35254;47.990;-1.608;2023-11-19T08:27:30;12.48;;;1.92;;
49378;SDS011;35254;47.990;-1.608;2023-11-19T08:29:56;9.20;;;2.35;;
49378;SDS011;35254;47.990;-1.608;2023-11-19T08:32:25;5.18;;;2.10;;
49378;SDS011;35254;47.990;-1.608;2023-11-19T08:34:51;8.23;;;3.00;;
49378;SDS011;35254;47.990;-1.608;2023-11-19T08:37:17;6.70;;;1.70;;
49378;SDS011;35254;47.990;-1.608;2023-11-19T08:39:49;14.93;;;2.97;;
49378;SDS011;35254;47.990;-1.608;2023-11-19T08:42:16;13.60;;;2.72;;
49378;SDS011;35254;47.990;-1.608;2023-11-19T08:44:42;9.23;;;2.30;;
49378;SDS011;35254;47.990;-1.608;2023-11-19T08:47:11;17.45;;;3.40;;
49378;SDS011;35254;47.990;-1.608;2023-11-19T08:49:38;8.68;;;2.08;;
49378;SDS011;35254;47.990;-1.608;2023-11-19T08:52:04;6.55;;;1.58;;
49378;SDS011;35254;47.990;-1.608;2023-11-19T08:54:32;6.03;;;1.70;;
49378;SDS011;35254;47.990;-1.608;2023-11-19T08:56:58;4.70;;;1.38;;
49378;SDS011;35254;47.990;-1.608;2023-11-19T08:59:24;8.57;;;2.50;;
49378;SDS011;35254;47.990;-1.608;2023-11-19T09:01:50;5.13;;;1.65;;
49378;SDS011;35254;47.990;-1.608;2023-11-19T09:04:15;6.95;;;2.00;;
49378;SDS011;35254;47.990;-1.608;2023-11-19T09:06:41;7.30;;;1.95;;
49378;SDS011;35254;47.990;-1.608;2023-11-19T09:09:07;6.85;;;2.30;;
49378;SDS011;35254;47.990;-1.608;2023-11-19T09:11:34;4.80;;;1.60;;
49378;SDS011;35254;47.990;-1.608;2023-11-19T09:14:00;5.72;;;1.63;;
49378;SDS011;35254;47.990;-1.608;2023-11-19T09:16:25;8.07;;;1.80;;
49378;SDS011;35254;47.990;-1.608;2023-11-19T09:18:51;7.60;;;1.80;;
49378;SDS011;35254;47.990;-1.608;2023-11-19T09:21:16;4.60;;;1.58;;
49378;SDS011;35254;47.990;-1.608;2023-11-19T09:23:43;4.35;;;1.35;;
49378;SDS011;35254;47.990;-1.608;2023-11-19T09:26:08;7.22;;;1.83;;
49378;SDS011;35254;47.990;-1.608;2023-11-19T09:28:37;7.88;;;1.70;;
49378;SDS011;35254;47.990;-1.608;2023-11-19T09:31:12;9.73;;;2.33;;
49378;SDS011;35254;47.990;-1.608;2023-11-19T09:33:38;7.47;;;2.42;;
49378;SDS011;35254;47.990;-1.608;2023-11-19T09:36:04;12.80;;;3.75;;
49378;SDS011;35254;47.990;-1.608;2023-11-19T09:38:30;12.90;;;2.65;;
49378;SDS011;35254;47.990;-1.608;2023-11-19T09:40:55;12.27;;;3.00;;
49378;SDS011;35254;47.990;-1.608;2023-11-19T09:43:23;8.35;;;2.65;;
49378;SDS011;35254;47.990;-1.608;2023-11-19T09:45:49;11.15;;;2.20;;
49378;SDS011;35254;47.990;-1.608;2023-11-19T09:48:18;8.98;;;2.47;;
49378;SDS011;35254;47.990;-1.608;2023-11-19T09:50:48;10.90;;;2.22;;
49378;SDS011;35254;47.990;-1.608;2023-11-19T09:53:15;7.72;;;2.03;;
49378;SDS011;35254;47.990;-1.608;2023-11-19T09:55:41;12.07;;;2.42;;
49378;SDS011;35254;47.990;-1.608;2023-11-19T09:58:07;8.00;;;1.92;;
49378;SDS011;35254;47.990;-1.608;2023-11-19T10:00:33;12.77;;;2.92;;
49378;SDS011;35254;47.990;-1.608;2023-11-19T10:02:59;11.60;;;3.20;;
49378;SDS011;35254;47.990;-1.608;2023-11-19T10:05:26;7.93;;;2.00;;
49378;SDS011;35254;47.990;-1.608;2023-11-19T10:07:52;7.72;;;2.10;;
49378;SDS011;35254;47.990;-1.608;2023-11-19T10:10:18;10.75;;;2.15;;
49378;SDS011;35254;47.990;-1.608;2023-11-19T10:12:47;8.05;;;2.25;;
49378;SDS011;35254;47.990;-1.608;2023-11-19T10:15:22;9.65;;;2.78;;
49378;SDS011;35254;47.990;-1.608;2023-11-19T10:17:50;6.90;;;1.75;;
49378;SDS011;35254;47.990;-1.608;2023-11-19T10:20:16;8.27;;;1.83;;
49378;SDS011;35254;47.990;-1.608;2023-11-19T10:22:42;6.88;;;1.63;;
49378;SDS011;35254;47.990;-1.608;2023-11-19T10:25:26;7.13;;;2.05;;
49378;SDS011;35254;47.990;-1.608;2023-11-19T10:27:54;7.38;;;1.73;;
49378;SDS011;35254;47.990;-1.608;2023-11-19T10:30:21;6.57;;;2.00;;
49378;SDS011;35254;47.990;-1.608;2023-11-19T10:33:07;12.95;;;2.00;;
49378;SDS011;35254;47.990;-1.608;2023-11-19T10:35:37;17.30;;;4.07;;
49378;SDS011;35254;47.990;-1.608;2023-11-19T10:38:20;11.43;;;2.80;;
49378;SDS011;35254;47.990;-1.608;2023-11-19T10:40:47;6.97;;;2.92;;
49378;SDS011;35254;47.990;-1.608;2023-11-19T10:43:13;6.30;;;1.80;;
49378;SDS011;35254;47.990;-1.608;2023-11-19T10:45:39;48.75;;;16.08;;
49378;SDS011;35254;47.990;-1.608;2023-11-19T10:48:05;66.55;;;22.33;;
49378;SDS011;35254;47.990;-1.608;2023-11-19T10:50:34;54.03;;;20.75;;
49378;SDS011;35254;47.990;-1.608;2023-11-19T10:53:05;45.22;;;15.65;;
49378;SDS011;35254;47.990;-1.608;2023-11-19T10:55:35;25.35;;;8.48;;
49378;SDS011;35254;47.990;-1.608;2023-11-19T10:58:05;24.17;;;7.20;;
49378;SDS011;35254;47.990;-1.608;2023-11-19T11:00:38;17.73;;;4.77;;
49378;SDS011;35254;47.990;-1.608;2023-11-19T11:03:15;20.20;;;5.00;;
49378;SDS011;35254;47.990;-1.608;2023-11-19T11:05:49;20.60;;;4.90;;
49378;SDS011;35254;47.990;-1.608;2023-11-19T11:08:16;20.05;;;3.97;;
49378;SDS011;35254;47.990;-1.608;2023-11-19T11:10:43;24.45;;;5.20;;
49378;SDS011;35254;47.990;-1.608;2023-11-19T11:13:18;14.90;;;4.13;;
49378;SDS011;35254;47.990;-1.608;2023-11-19T11:15:45;18.52;;;4.88;;
49378;SDS011;35254;47.990;-1.608;2023-11-19T11:18:11;21.45;;;5.43;;
49378;SDS011;35254;47.990;-1.608;2023-11-19T11:20:38;25.52;;;4.93;;
49378;SDS011;35254;47.990;-1.608;2023-11-19T11:26:00;22.83;;;4.15;;
49378;SDS011;35254;47.990;-1.608;2023-11-19T11:37:36;19.58;;;4.45;;
49378;SDS011;35254;47.990;-1.608;2023-11-19T11:40:08;23.83;;;4.63;;
49378;SDS011;35254;47.990;-1.608;2023-11-19T11:42:41;22.75;;;5.53;;
49378;SDS011;35254;47.990;-1.608;2023-11-19T11:45:10;21.30;;;5.68;;
49378;SDS011;35254;47.990;-1.608;2023-11-19T11:50:07;12.52;;;3.30;;
49378;SDS011;35254;47.990;-1.608;2023-11-19T11:57:53;17.63;;;4.47;;
49378;SDS011;35254;47.990;-1.608;2023-11-19T12:00:22;10.65;;;3.30;;
49378;SDS011;35254;47.990;-1.608;2023-11-19T12:02:51;20.15;;;3.28;;
49378;SDS011;35254;47.990;-1.608;2023-11-19T12:05:19;21.25;;;4.63;;
49378;SDS011;35254;47.990;-1.608;2023-11-19T12:07:54;16.48;;;3.80;;
49378;SDS011;35254;47.990;-1.608;2023-11-19T12:10:31;11.30;;;3.33;;
49378;SDS011;35254;47.990;-1.608;2023-11-19T12:13:18;13.50;;;3.40;;
49378;SDS011;35254;47.990;-1.608;2023-11-19T12:16:08;12.55;;;2.83;;
49378;SDS011;35254;47.990;-1.608;2023-11-19T12:18:32;18.40;;;3.30;;
49378;SDS011;35254;47.990;-1.608;2023-11-19T12:20:58;15.90;;;3.25;;
49378;SDS011;35254;47.990;-1.608;2023-11-19T12:23:26;8.38;;;3.20;;
49378;SDS011;35254;47.990;-1.608;2023-11-19T12:25:53;13.43;;;3.35;;
49378;SDS011;35254;47.990;-1.608;2023-11-19T12:28:20;16.77;;;4.57;;
49378;SDS011;35254;47.990;-1.608;2023-11-19T12:30:46;10.05;;;2.35;;
49378;SDS011;35254;47.990;-1.608;2023-11-19T12:33:15;16.05;;;3.63;;
49378;SDS011;35254;47.990;-1.608;2023-11-19T12:35:41;100.15;;;29.77;;
49378;SDS011;35254;47.990;-1.608;2023-11-19T12:38:17;77.07;;;21.02;;
49378;SDS011;35254;47.990;-1.608;2023-11-19T12:40:44;83.60;;;23.42;;
49378;SDS011;35254;47.990;-1.608;2023-11-19T12:43:10;75.95;;;22.02;;
49378;SDS011;35254;47.990;-1.608;2023-11-19T12:45:45;79.38;;;22.27;;
49378;SDS011;35254;47.990;-1.608;2023-11-19T12:48:14;58.83;;;16.45;;
49378;SDS011;35254;47.990;-1.608;2023-11-19T12:50:56;61.28;;;17.65;;
49378;SDS011;35254;47.990;-1.608;2023-11-19T12:53:24;49.65;;;15.52;;
49378;SDS011;35254;47.990;-1.608;2023-11-19T12:55:52;44.42;;;15.57;;
49378;SDS011;35254;47.990;-1.608;2023-11-19T12:58:30;41.35;;;14.02;;
49378;SDS011;35254;47.990;-1.608;2023-11-19T13:03:29;37.67;;;12.07;;
49378;SDS011;35254;47.990;-1.608;2023-11-19T13:06:04;39.05;;;10.50;;
49378;SDS011;35254;47.990;-1.608;2023-11-19T13:11:03;85.57;;;22.67;;
49378;SDS011;35254;47.990;-1.608;2023-11-19T13:13:29;244.98;;;69.70;;
49378;SDS011;35254;47.990;-1.608;2023-11-19T13:16:01;591.90;;;223.50;;
49378;SDS011;35254;47.990;-1.608;2023-11-19T13:18:29;398.35;;;140.70;;
49378;SDS011;35254;47.990;-1.608;2023-11-19T13:20:54;352.27;;;121.05;;
49378;SDS011;35254;47.990;-1.608;2023-11-19T13:23:23;264.00;;;96.25;;
49378;SDS011;35254;47.990;-1.608;2023-11-19T13:25:51;230.55;;;79.72;;
49378;SDS011;35254;47.990;-1.608;2023-11-19T13:28:17;212.98;;;79.88;;
49378;SDS011;35254;47.990;-1.608;2023-11-19T13:30:42;194.20;;;74.65;;
49378;SDS011;35254;47.990;-1.608;2023-11-19T13:33:08;164.90;;;67.65;;
49378;SDS011;35254;47.990;-1.608;2023-11-19T13:35:37;166.68;;;69.40;;
49378;SDS011;35254;47.990;-1.608;2023-11-19T13:38:05;197.38;;;128.18;;
49378;SDS011;35254;47.990;-1.608;2023-11-19T13:40:30;149.82;;;73.82;;
49378;SDS011;35254;47.990;-1.608;2023-11-19T13:42:56;119.78;;;51.85;;
49378;SDS011;35254;47.990;-1.608;2023-11-19T13:45:22;103.93;;;39.08;;
49378;SDS011;35254;47.990;-1.608;2023-11-19T13:47:47;78.63;;;30.90;;
49378;SDS011;35254;47.990;-1.608;2023-11-19T13:50:14;75.80;;;27.10;;
49378;SDS011;35254;47.990;-1.608;2023-11-19T13:52:41;56.88;;;21.42;;
49378;SDS011;35254;47.990;-1.608;2023-11-19T13:55:08;52.90;;;19.27;;
49378;SDS011;35254;47.990;-1.608;2023-11-19T13:57:38;52.55;;;21.15;;
49378;SDS011;35254;47.990;-1.608;2023-11-19T14:00:05;44.30;;;15.68;;
49378;SDS011;35254;47.990;-1.608;2023-11-19T14:02:41;44.55;;;16.88;;
49378;SDS011;35254;47.990;-1.608;2023-11-19T14:05:07;37.85;;;14.00;;
49378;SDS011;35254;47.990;-1.608;2023-11-19T14:07:34;41.58;;;13.35;;
49378;SDS011;35254;47.990;-1.608;2023-11-19T14:10:00;40.15;;;12.48;;
49378;SDS011;35254;47.990;-1.608;2023-11-19T14:12:25;38.28;;;12.38;;
49378;SDS011;35254;47.990;-1.608;2023-11-19T14:14:51;32.65;;;10.35;;
49378;SDS011;35254;47.990;-1.608;2023-11-19T14:17:18;38.17;;;11.05;;
49378;SDS011;35254;47.990;-1.608;2023-11-19T14:19:44;26.58;;;8.98;;
49378;SDS011;35254;47.990;-1.608;2023-11-19T14:22:10;24.67;;;8.63;;
49378;SDS011;35254;47.990;-1.608;2023-11-19T14:24:36;20.38;;;9.70;;
49378;SDS011;35254;47.990;-1.608;2023-11-19T14:27:02;20.23;;;7.82;;
49378;SDS011;35254;47.990;-1.608;2023-11-19T14:29:28;17.38;;;6.53;;
49378;SDS011;35254;47.990;-1.608;2023-11-19T14:31:56;18.13;;;6.78;;
49378;SDS011;35254;47.990;-1.608;2023-11-19T14:34:24;17.73;;;6.07;;
49378;SDS011;35254;47.990;-1.608;2023-11-19T14:36:51;21.23;;;8.05;;
49378;SDS011;35254;47.990;-1.608;2023-11-19T14:39:16;22.75;;;6.65;;
49378;SDS011;35254;47.990;-1.608;2023-11-19T14:41:42;24.20;;;5.82;;
49378;SDS011;35254;47.990;-1.608;2023-11-19T14:44:09;16.08;;;5.82;;
49378;SDS011;35254;47.990;-1.608;2023-11-19T14:46:35;20.10;;;6.18;;
49378;SDS011;35254;47.990;-1.608;2023-11-19T14:49:01;14.93;;;4.88;;
49378;SDS011;35254;47.990;-1.608;2023-11-19T14:51:29;17.42;;;5.70;;
49378;SDS011;35254;47.990;-1.608;2023-11-19T14:53:55;14.00;;;3.75;;